Airfield :
LOGIN :

Register | Disclaimer

   EN    FR    IT 

 










Legend :    VFR   Marginal VFR   IFR   Intensive IFR   Very Intensive IFR
Visi :
Ceiling :
>= 8 km
>= 3000ft
5 to 8 km
1000 to 3000 ft
1500m to 5 km
500 to 1000 ft
800 to 1500m
200 to 500 ft
< 800m
< 200 ft
Symbols :   Thunderstorms  Fog  Heavy snow  Heavy precipitations  Wind > 20 kt
SIGMETs :     Misc.  Thunderstorms  Icing  Turbulence  Mountain Waves  Volcanic Ashes







- Airport Elevation : 49 ft
- IATA code : GLZ


EHGR - Gilze-Rijen Airbase

CURRENT METAR :
  • 211725Z AUTO 23010KT 190V280 9999 -RA FEW040 SCT052 BKN058 14/07 Q1011 BLU

EXPIRED METARs :
  • 211655Z AUTO 25014KT 230V300 9999 -RADZ FEW029 BKN044 OVC050 14/06 Q1011 RERA REDZ BLU
  • 211625Z AUTO 24013G24KT 200V280 9999 NCD 16/04 Q1010 BLU
  • 211555Z AUTO 25016KT 220V280 9999 FEW052 16/04 Q1011 BLU
  • 211525Z AUTO 26015KT 230V300 9999 NCD 16/04 Q1011 BLU

TAF TAF EHGR
Valid from the 21 at 09:00 until the 21 at 21:00 UTC


210826Z 2109/2121 26012G25KT 9999 FEW025 SCT040
BECMG 2117/2119 23008KT
No reported NOTAMs for that airfield.



MET'MAP, your aeronautical weather chart ! - Copyright ORBIFLY December 2007 - Disclaimer

ORBIFLY MET'MAP TEAM :

Programming & Development : Alexandra Zaïnal
Concept & Development : Baudouin d'Aumeries
Co-Development & Prog : Marc-Olivier Méhu
Technical & hardware support : Manuel Goepfert

Contact : metmap@orbifly.com




SOURCES & CREDITS :

   NOAA